sensor_id;sensor_type;location;lat;lon;timestamp;temperature;humidity
45906;DHT22;31619;49.008;12.106;2023-01-25T00:01:28;2.60;99.90
45906;DHT22;31619;49.008;12.106;2023-01-25T00:03:53;2.60;99.90
45906;DHT22;31619;49.008;12.106;2023-01-25T00:06:19;2.60;99.90
45906;DHT22;31619;49.008;12.106;2023-01-25T00:08:51;2.60;99.90
45906;DHT22;31619;49.008;12.106;2023-01-25T00:11:17;2.50;99.90
45906;DHT22;31619;49.008;12.106;2023-01-25T00:13:44;2.50;99.90
45906;DHT22;31619;49.008;12.106;2023-01-25T00:16:10;2.50;99.90
45906;DHT22;31619;49.008;12.106;2023-01-25T00:18:35;2.50;99.90
45906;DHT22;31619;49.008;12.106;2023-01-25T00:21:12;2.40;99.90
45906;DHT22;31619;49.008;12.106;2023-01-25T00:23:37;2.50;99.90
45906;DHT22;31619;49.008;12.106;2023-01-25T00:26:03;2.50;99.90
45906;DHT22;31619;49.008;12.106;2023-01-25T00:28:28;2.50;99.90
45906;DHT22;31619;49.008;12.106;2023-01-25T00:31:15;2.50;99.90
45906;DHT22;31619;49.008;12.106;2023-01-25T00:33:50;2.40;99.90
45906;DHT22;31619;49.008;12.106;2023-01-25T00:36:26;2.50;99.90
45906;DHT22;31619;49.008;12.106;2023-01-25T00:38:53;2.50;99.90
45906;DHT22;31619;49.008;12.106;2023-01-25T00:41:19;2.40;99.90
45906;DHT22;31619;49.008;12.106;2023-01-25T00:43:44;2.50;99.90
45906;DHT22;31619;49.008;12.106;2023-01-25T00:46:14;2.50;99.90
45906;DHT22;31619;49.008;12.106;2023-01-25T00:48:40;2.50;99.90
45906;DHT22;31619;49.008;12.106;2023-01-25T00:51:06;2.50;99.90
45906;DHT22;31619;49.008;12.106;2023-01-25T00:53:31;2.50;99.90
45906;DHT22;31619;49.008;12.106;2023-01-25T00:55:57;2.40;99.90
45906;DHT22;31619;49.008;12.106;2023-01-25T00:58:22;2.30;99.90
45906;DHT22;31619;49.008;12.106;2023-01-25T01:00:48;2.40;99.90
45906;DHT22;31619;49.008;12.106;2023-01-25T01:03:15;2.30;99.90
45906;DHT22;31619;49.008;12.106;2023-01-25T01:05:40;2.40;99.90
45906;DHT22;31619;49.008;12.106;2023-01-25T01:08:06;2.40;99.90
45906;DHT22;31619;49.008;12.106;2023-01-25T01:10:50;2.40;99.90
45906;DHT22;31619;49.008;12.106;2023-01-25T01:20:18;2.30;99.90
45906;DHT22;31619;49.008;12.106;2023-01-25T01:22:44;2.30;99.90
45906;DHT22;31619;49.008;12.106;2023-01-25T01:25:09;2.30;99.90
45906;DHT22;31619;49.008;12.106;2023-01-25T01:27:35;2.30;99.90
45906;DHT22;31619;49.008;12.106;2023-01-25T01:30:01;2.30;99.90
45906;DHT22;31619;49.008;12.106;2023-01-25T01:32:26;2.30;99.90
45906;DHT22;31619;49.008;12.106;2023-01-25T01:34:52;2.30;99.90
45906;DHT22;31619;49.008;12.106;2023-01-25T01:37:17;2.30;99.90
45906;DHT22;31619;49.008;12.106;2023-01-25T01:39:43;2.30;99.90
45906;DHT22;31619;49.008;12.106;2023-01-25T01:42:08;2.30;99.90
45906;DHT22;31619;49.008;12.106;2023-01-25T01:44:46;2.10;99.90
45906;DHT22;31619;49.008;12.106;2023-01-25T01:47:30;2.10;99.90
45906;DHT22;31619;49.008;12.106;2023-01-25T01:50:02;2.00;99.90
45906;DHT22;31619;49.008;12.106;2023-01-25T01:52:34;2.10;99.90
45906;DHT22;31619;49.008;12.106;2023-01-25T01:55:12;2.10;99.90
45906;DHT22;31619;49.008;12.106;2023-01-25T01:57:45;2.10;99.90
45906;DHT22;31619;49.008;12.106;2023-01-25T02:00:24;2.00;99.90
45906;DHT22;31619;49.008;12.106;2023-01-25T02:02:51;2.00;99.90
45906;DHT22;31619;49.008;12.106;2023-01-25T02:05:24;1.90;99.90
45906;DHT22;31619;49.008;12.106;2023-01-25T02:07:52;1.90;99.90
45906;DHT22;31619;49.008;12.106;2023-01-25T02:10:19;2.00;99.90
45906;DHT22;31619;49.008;12.106;2023-01-25T02:12:47;2.00;99.90
45906;DHT22;31619;49.008;12.106;2023-01-25T02:15:13;2.00;99.90
45906;DHT22;31619;49.008;12.106;2023-01-25T02:17:39;2.00;99.90
45906;DHT22;31619;49.008;12.106;2023-01-25T02:20:16;2.00;99.90
45906;DHT22;31619;49.008;12.106;2023-01-25T02:25:14;1.90;99.90
45906;DHT22;31619;49.008;12.106;2023-01-25T02:27:45;1.80;99.90
45906;DHT22;31619;49.008;12.106;2023-01-25T02:30:12;1.80;99.90
45906;DHT22;31619;49.008;12.106;2023-01-25T02:32:37;1.80;99.90
45906;DHT22;31619;49.008;12.106;2023-01-25T02:35:04;1.90;99.90
45906;DHT22;31619;49.008;12.106;2023-01-25T02:37:30;1.80;99.90
45906;DHT22;31619;49.008;12.106;2023-01-25T02:39:55;1.80;99.90
45906;DHT22;31619;49.008;12.106;2023-01-25T02:42:21;1.80;99.90
45906;DHT22;31619;49.008;12.106;2023-01-25T02:44:47;1.90;99.90
45906;DHT22;31619;49.008;12.106;2023-01-25T02:47:14;1.90;99.90
45906;DHT22;31619;49.008;12.106;2023-01-25T02:49:40;1.90;99.90
45906;DHT22;31619;49.008;12.106;2023-01-25T02:52:05;1.80;99.90
45906;DHT22;31619;49.008;12.106;2023-01-25T02:54:31;1.80;99.90
45906;DHT22;31619;49.008;12.106;2023-01-25T02:56:57;1.80;99.90
45906;DHT22;31619;49.008;12.106;2023-01-25T02:59:23;1.90;99.90
45906;DHT22;31619;49.008;12.106;2023-01-25T03:01:48;1.90;99.90
45906;DHT22;31619;49.008;12.106;2023-01-25T03:04:14;1.90;99.90
45906;DHT22;31619;49.008;12.106;2023-01-25T03:06:40;1.90;99.90
45906;DHT22;31619;49.008;12.106;2023-01-25T03:09:08;1.90;99.90
45906;DHT22;31619;49.008;12.106;2023-01-25T03:11:34;1.90;99.90
45906;DHT22;31619;49.008;12.106;2023-01-25T03:14:00;1.90;99.90
45906;DHT22;31619;49.008;12.106;2023-01-25T03:16:26;1.90;99.90
45906;DHT22;31619;49.008;12.106;2023-01-25T03:18:53;1.90;99.90
45906;DHT22;31619;49.008;12.106;2023-01-25T03:21:19;1.90;99.90
45906;DHT22;31619;49.008;12.106;2023-01-25T03:23:46;1.90;99.90
45906;DHT22;31619;49.008;12.106;2023-01-25T03:26:18;1.90;99.90
45906;DHT22;31619;49.008;12.106;2023-01-25T03:28:44;1.90;99.90
45906;DHT22;31619;49.008;12.106;2023-01-25T03:31:14;1.80;99.90
45906;DHT22;31619;49.008;12.106;2023-01-25T03:33:40;1.90;99.90
45906;DHT22;31619;49.008;12.106;2023-01-25T03:36:07;1.90;99.90
45906;DHT22;31619;49.008;12.106;2023-01-25T03:38:33;1.90;99.90
45906;DHT22;31619;49.008;12.106;2023-01-25T03:40:59;1.90;99.90
45906;DHT22;31619;49.008;12.106;2023-01-25T03:43:25;1.90;99.90
45906;DHT22;31619;49.008;12.106;2023-01-25T03:45:59;1.80;99.90
45906;DHT22;31619;49.008;12.106;2023-01-25T03:48:25;1.90;99.90
45906;DHT22;31619;49.008;12.106;2023-01-25T03:50:53;1.90;99.90
45906;DHT22;31619;49.008;12.106;2023-01-25T03:53:19;1.80;99.90
45906;DHT22;31619;49.008;12.106;2023-01-25T03:55:54;1.90;99.90
45906;DHT22;31619;49.008;12.106;2023-01-25T03:58:20;2.00;99.90
45906;DHT22;31619;49.008;12.106;2023-01-25T04:00:46;2.00;99.90
45906;DHT22;31619;49.008;12.106;2023-01-25T04:03:11;2.00;99.90
45906;DHT22;31619;49.008;12.106;2023-01-25T04:05:37;1.90;99.90
45906;DHT22;31619;49.008;12.106;2023-01-25T04:08:03;1.90;99.90
45906;DHT22;31619;49.008;12.106;2023-01-25T04:10:28;1.90;99.90
45906;DHT22;31619;49.008;12.106;2023-01-25T04:12:54;1.90;99.90
45906;DHT22;31619;49.008;12.106;2023-01-25T04:15:19;1.90;99.90
45906;DHT22;31619;49.008;12.106;2023-01-25T04:17:45;1.90;99.90
45906;DHT22;31619;49.008;12.106;2023-01-25T04:20:10;2.00;99.90
45906;DHT22;31619;49.008;12.106;2023-01-25T04:22:36;1.90;99.90
45906;DHT22;31619;49.008;12.106;2023-01-25T04:25:02;1.90;99.90
45906;DHT22;31619;49.008;12.106;2023-01-25T04:27:28;2.00;99.90
45906;DHT22;31619;49.008;12.106;2023-01-25T04:29:53;1.90;99.90
45906;DHT22;31619;49.008;12.106;2023-01-25T04:32:19;1.90;99.90
45906;DHT22;31619;49.008;12.106;2023-01-25T04:34:45;1.80;99.90
45906;DHT22;31619;49.008;12.106;2023-01-25T04:37:10;1.80;99.90
45906;DHT22;31619;49.008;12.106;2023-01-25T04:39:36;1.80;99.90
45906;DHT22;31619;49.008;12.106;2023-01-25T04:42:01;1.80;99.90
45906;DHT22;31619;49.008;12.106;2023-01-25T04:44:27;1.80;99.90
45906;DHT22;31619;49.008;12.106;2023-01-25T04:46:52;1.80;99.90
45906;DHT22;31619;49.008;12.106;2023-01-25T04:49:18;1.80;99.90
45906;DHT22;31619;49.008;12.106;2023-01-25T04:51:44;1.80;99.90
45906;DHT22;31619;49.008;12.106;2023-01-25T04:54:09;1.80;99.90
45906;DHT22;31619;49.008;12.106;2023-01-25T04:56:35;1.90;99.90
45906;DHT22;31619;49.008;12.106;2023-01-25T04:59:00;1.80;99.90
45906;DHT22;31619;49.008;12.106;2023-01-25T05:01:26;1.90;99.90
45906;DHT22;31619;49.008;12.106;2023-01-25T05:03:51;1.80;99.90
45906;DHT22;31619;49.008;12.106;2023-01-25T05:06:17;1.70;99.90
45906;DHT22;31619;49.008;12.106;2023-01-25T05:08:42;1.60;99.90
45906;DHT22;31619;49.008;12.106;2023-01-25T05:11:08;1.70;99.90
45906;DHT22;31619;49.008;12.106;2023-01-25T05:13:33;1.80;99.90
45906;DHT22;31619;49.008;12.106;2023-01-25T05:15:59;1.80;99.90
45906;DHT22;31619;49.008;12.106;2023-01-25T05:18:25;1.70;99.90
45906;DHT22;31619;49.008;12.106;2023-01-25T05:20:54;1.70;99.90
45906;DHT22;31619;49.008;12.106;2023-01-25T05:23:23;1.70;99.90
45906;DHT22;31619;49.008;12.106;2023-01-25T05:25:48;1.70;99.90
45906;DHT22;31619;49.008;12.106;2023-01-25T05:28:33;1.80;99.90
45906;DHT22;31619;49.008;12.106;2023-01-25T05:30:58;1.80;99.90
45906;DHT22;31619;49.008;12.106;2023-01-25T05:33:24;1.80;99.90
45906;DHT22;31619;49.008;12.106;2023-01-25T05:35:49;1.80;99.90
45906;DHT22;31619;49.008;12.106;2023-01-25T05:38:15;1.90;99.90
45906;DHT22;31619;49.008;12.106;2023-01-25T05:40:40;1.90;99.90
45906;DHT22;31619;49.008;12.106;2023-01-25T05:43:07;1.90;99.90
45906;DHT22;31619;49.008;12.106;2023-01-25T05:45:32;1.90;99.90
45906;DHT22;31619;49.008;12.106;2023-01-25T05:47:58;2.00;99.90
45906;DHT22;31619;49.008;12.106;2023-01-25T05:50:25;2.00;99.90
45906;DHT22;31619;49.008;12.106;2023-01-25T05:52:50;1.90;99.90
45906;DHT22;31619;49.008;12.106;2023-01-25T05:55:16;2.00;99.90
45906;DHT22;31619;49.008;12.106;2023-01-25T05:57:42;2.10;99.90
45906;DHT22;31619;49.008;12.106;2023-01-25T06:00:09;2.10;99.90
45906;DHT22;31619;49.008;12.106;2023-01-25T06:02:35;2.00;99.90
45906;DHT22;31619;49.008;12.106;2023-01-25T06:05:02;1.90;99.90
45906;DHT22;31619;49.008;12.106;2023-01-25T06:07:27;1.90;99.90
45906;DHT22;31619;49.008;12.106;2023-01-25T06:09:53;2.00;99.90
45906;DHT22;31619;49.008;12.106;2023-01-25T06:12:20;2.00;99.90
45906;DHT22;31619;49.008;12.106;2023-01-25T06:14:46;1.90;99.90
45906;DHT22;31619;49.008;12.106;2023-01-25T06:17:12;1.90;99.90
45906;DHT22;31619;49.008;12.106;2023-01-25T06:19:38;1.90;99.90
45906;DHT22;31619;49.008;12.106;2023-01-25T06:22:04;2.00;99.90
45906;DHT22;31619;49.008;12.106;2023-01-25T06:24:29;2.20;99.90
45906;DHT22;31619;49.008;12.106;2023-01-25T06:26:55;2.10;99.90
45906;DHT22;31619;49.008;12.106;2023-01-25T06:29:20;2.10;99.90
45906;DHT22;31619;49.008;12.106;2023-01-25T06:31:46;2.20;99.90
45906;DHT22;31619;49.008;12.106;2023-01-25T06:34:11;2.20;99.90
45906;DHT22;31619;49.008;12.106;2023-01-25T06:36:37;2.10;99.90
45906;DHT22;31619;49.008;12.106;2023-01-25T06:39:02;2.20;99.90
45906;DHT22;31619;49.008;12.106;2023-01-25T06:41:28;2.20;99.90
45906;DHT22;31619;49.008;12.106;2023-01-25T06:43:54;2.30;99.90
45906;DHT22;31619;49.008;12.106;2023-01-25T06:46:20;2.20;99.90
45906;DHT22;31619;49.008;12.106;2023-01-25T06:48:46;2.30;99.90
45906;DHT22;31619;49.008;12.106;2023-01-25T06:51:13;2.30;99.90
45906;DHT22;31619;49.008;12.106;2023-01-25T06:53:41;2.30;99.90
45906;DHT22;31619;49.008;12.106;2023-01-25T06:56:16;2.30;99.90
45906;DHT22;31619;49.008;12.106;2023-01-25T06:58:42;2.30;99.90
45906;DHT22;31619;49.008;12.106;2023-01-25T07:03:38;2.30;99.90
45906;DHT22;31619;49.008;12.106;2023-01-25T07:06:07;2.20;99.90
45906;DHT22;31619;49.008;12.106;2023-01-25T07:08:33;2.20;99.90
45906;DHT22;31619;49.008;12.106;2023-01-25T07:11:01;2.10;99.90
45906;DHT22;31619;49.008;12.106;2023-01-25T07:13:28;2.20;99.90
45906;DHT22;31619;49.008;12.106;2023-01-25T07:15:57;2.30;99.90
45906;DHT22;31619;49.008;12.106;2023-01-25T07:18:24;2.40;99.90
45906;DHT22;31619;49.008;12.106;2023-01-25T07:20:50;2.40;99.90
45906;DHT22;31619;49.008;12.106;2023-01-25T07:23:16;2.30;99.90
45906;DHT22;31619;49.008;12.106;2023-01-25T07:25:49;2.30;99.90
45906;DHT22;31619;49.008;12.106;2023-01-25T07:28:15;2.30;99.90
45906;DHT22;31619;49.008;12.106;2023-01-25T07:30:42;2.40;99.90
45906;DHT22;31619;49.008;12.106;2023-01-25T07:33:09;2.50;99.90
45906;DHT22;31619;49.008;12.106;2023-01-25T07:35:35;2.40;99.90
45906;DHT22;31619;49.008;12.106;2023-01-25T07:38:01;2.50;99.90
45906;DHT22;31619;49.008;12.106;2023-01-25T07:40:27;2.50;99.90
45906;DHT22;31619;49.008;12.106;2023-01-25T07:42:53;2.50;99.90
45906;DHT22;31619;49.008;12.106;2023-01-25T07:45:19;2.50;99.90
45906;DHT22;31619;49.008;12.106;2023-01-25T07:47:45;2.50;99.90
45906;DHT22;31619;49.008;12.106;2023-01-25T07:50:11;2.50;99.90
45906;DHT22;31619;49.008;12.106;2023-01-25T07:52:37;2.30;99.90
45906;DHT22;31619;49.008;12.106;2023-01-25T07:55:03;2.30;99.90
45906;DHT22;31619;49.008;12.106;2023-01-25T07:57:28;2.30;99.90
45906;DHT22;31619;49.008;12.106;2023-01-25T07:59:54;2.40;99.90
45906;DHT22;31619;49.008;12.106;2023-01-25T08:02:20;2.40;99.90
45906;DHT22;31619;49.008;12.106;2023-01-25T08:04:45;2.50;99.90
45906;DHT22;31619;49.008;12.106;2023-01-25T08:07:12;2.50;99.90
45906;DHT22;31619;49.008;12.106;2023-01-25T08:09:38;2.60;99.90
45906;DHT22;31619;49.008;12.106;2023-01-25T08:12:04;2.60;99.90
45906;DHT22;31619;49.008;12.106;2023-01-25T08:14:30;2.50;99.90
45906;DHT22;31619;49.008;12.106;2023-01-25T08:16:56;2.60;99.90
45906;DHT22;31619;49.008;12.106;2023-01-25T08:19:21;2.60;99.90
45906;DHT22;31619;49.008;12.106;2023-01-25T08:21:47;2.70;99.90
45906;DHT22;31619;49.008;12.106;2023-01-25T08:24:12;2.70;99.90
45906;DHT22;31619;49.008;12.106;2023-01-25T08:26:38;2.80;99.90
45906;DHT22;31619;49.008;12.106;2023-01-25T08:29:05;2.80;99.90
45906;DHT22;31619;49.008;12.106;2023-01-25T08:31:33;2.60;99.90
45906;DHT22;31619;49.008;12.106;2023-01-25T08:34:00;2.60;99.90
45906;DHT22;31619;49.008;12.106;2023-01-25T08:36:26;2.70;99.90
45906;DHT22;31619;49.008;12.106;2023-01-25T08:38:56;2.70;99.90
45906;DHT22;31619;49.008;12.106;2023-01-25T08:41:24;2.70;99.90
45906;DHT22;31619;49.008;12.106;2023-01-25T08:43:52;2.70;99.90
45906;DHT22;31619;49.008;12.106;2023-01-25T08:46:18;2.80;99.90
45906;DHT22;31619;49.008;12.106;2023-01-25T08:48:44;2.80;99.90
45906;DHT22;31619;49.008;12.106;2023-01-25T08:51:15;2.80;99.90
45906;DHT22;31619;49.008;12.106;2023-01-25T08:53:41;2.80;99.90
45906;DHT22;31619;49.008;12.106;2023-01-25T08:56:11;2.80;99.90
45906;DHT22;31619;49.008;12.106;2023-01-25T08:58:39;2.80;99.90
45906;DHT22;31619;49.008;12.106;2023-01-25T09:01:08;2.70;99.90
45906;DHT22;31619;49.008;12.106;2023-01-25T09:03:39;2.70;99.90
45906;DHT22;31619;49.008;12.106;2023-01-25T09:06:05;2.80;99.90
45906;DHT22;31619;49.008;12.106;2023-01-25T09:08:32;2.70;99.90
45906;DHT22;31619;49.008;12.106;2023-01-25T09:11:02;2.70;99.90
45906;DHT22;31619;49.008;12.106;2023-01-25T09:13:28;2.80;99.90
45906;DHT22;31619;49.008;12.106;2023-01-25T09:16:05;2.80;99.90
45906;DHT22;31619;49.008;12.106;2023-01-25T09:18:31;2.80;99.90
45906;DHT22;31619;49.008;12.106;2023-01-25T09:20:57;2.90;99.90
45906;DHT22;31619;49.008;12.106;2023-01-25T09:23:23;3.00;99.90
45906;DHT22;31619;49.008;12.106;2023-01-25T09:25:56;3.10;99.90
45906;DHT22;31619;49.008;12.106;2023-01-25T09:28:22;3.10;99.90
45906;DHT22;31619;49.008;12.106;2023-01-25T09:31:02;3.10;99.90
45906;DHT22;31619;49.008;12.106;2023-01-25T09:33:33;3.10;99.90
45906;DHT22;31619;49.008;12.106;2023-01-25T09:35:59;3.10;99.90
45906;DHT22;31619;49.008;12.106;2023-01-25T09:38:24;3.10;99.90
45906;DHT22;31619;49.008;12.106;2023-01-25T09:43:58;3.30;99.90
45906;DHT22;31619;49.008;12.106;2023-01-25T09:55:01;3.10;99.90
45906;DHT22;31619;49.008;12.106;2023-01-25T09:57:36;3.20;99.90
45906;DHT22;31619;49.008;12.106;2023-01-25T10:00:16;3.30;99.90
45906;DHT22;31619;49.008;12.106;2023-01-25T10:05:26;3.30;99.90
45906;DHT22;31619;49.008;12.106;2023-01-25T10:10:38;3.30;99.90
45906;DHT22;31619;49.008;12.106;2023-01-25T10:13:11;3.40;99.90
45906;DHT22;31619;49.008;12.106;2023-01-25T10:15:42;3.40;99.90
45906;DHT22;31619;49.008;12.106;2023-01-25T10:20:54;3.20;99.90
45906;DHT22;31619;49.008;12.106;2023-01-25T10:23:45;3.20;99.90
45906;DHT22;31619;49.008;12.106;2023-01-25T10:26:27;3.20;99.90
45906;DHT22;31619;49.008;12.106;2023-01-25T10:29:19;3.30;99.90
45906;DHT22;31619;49.008;12.106;2023-01-25T10:32:08;3.30;99.90
45906;DHT22;31619;49.008;12.106;2023-01-25T10:34:39;3.30;99.90
45906;DHT22;31619;49.008;12.106;2023-01-25T10:37:15;3.40;99.90
45906;DHT22;31619;49.008;12.106;2023-01-25T10:40:00;3.30;99.90
45906;DHT22;31619;49.008;12.106;2023-01-25T10:42:30;3.10;99.90
45906;DHT22;31619;49.008;12.106;2023-01-25T10:44:57;2.90;99.90
45906;DHT22;31619;49.008;12.106;2023-01-25T10:47:32;3.00;99.90
45906;DHT22;31619;49.008;12.106;2023-01-25T10:49:59;3.10;99.90
45906;DHT22;31619;49.008;12.106;2023-01-25T10:52:27;3.20;99.90
45906;DHT22;31619;49.008;12.106;2023-01-25T10:55:16;3.30;99.90
45906;DHT22;31619;49.008;12.106;2023-01-25T10:57:50;3.30;99.90
45906;DHT22;31619;49.008;12.106;2023-01-25T11:00:27;3.30;99.90
45906;DHT22;31619;49.008;12.106;2023-01-25T11:02:53;3.30;99.90
45906;DHT22;31619;49.008;12.106;2023-01-25T11:05:35;3.20;99.90
45906;DHT22;31619;49.008;12.106;2023-01-25T11:08:32;3.20;99.90
45906;DHT22;31619;49.008;12.106;2023-01-25T11:10:58;3.30;99.90
45906;DHT22;31619;49.008;12.106;2023-01-25T11:13:26;3.50;99.90
45906;DHT22;31619;49.008;12.106;2023-01-25T11:16:26;3.50;99.90
45906;DHT22;31619;49.008;12.106;2023-01-25T11:18:55;3.60;99.90
45906;DHT22;31619;49.008;12.106;2023-01-25T11:21:24;3.70;99.90
45906;DHT22;31619;49.008;12.106;2023-01-25T11:24:00;3.70;99.90
45906;DHT22;31619;49.008;12.106;2023-01-25T11:26:26;3.70;99.90
45906;DHT22;31619;49.008;12.106;2023-01-25T11:29:15;3.80;99.90
45906;DHT22;31619;49.008;12.106;2023-01-25T11:31:43;3.80;99.90
45906;DHT22;31619;49.008;12.106;2023-01-25T11:34:13;3.80;99.90
45906;DHT22;31619;49.008;12.106;2023-01-25T11:48:23;3.50;99.90
45906;DHT22;31619;49.008;12.106;2023-01-25T11:56:10;3.60;99.90
45906;DHT22;31619;49.008;12.106;2023-01-25T12:01:41;3.70;99.90
45906;DHT22;31619;49.008;12.106;2023-01-25T12:07:11;3.70;99.90
45906;DHT22;31619;49.008;12.106;2023-01-25T12:12:36;3.80;99.90
45906;DHT22;31619;49.008;12.106;2023-01-25T12:26:09;3.70;99.90
45906;DHT22;31619;49.008;12.106;2023-01-25T12:28:06;3.70;99.90
45906;DHT22;31619;49.008;12.106;2023-01-25T12:33:50;3.80;99.90
45906;DHT22;31619;49.008;12.106;2023-01-25T12:36:14;3.60;99.90
45906;DHT22;31619;49.008;12.106;2023-01-25T12:46:50;3.60;99.90
45906;DHT22;31619;49.008;12.106;2023-01-25T12:49:37;3.60;99.90
45906;DHT22;31619;49.008;12.106;2023-01-25T12:52:29;3.60;99.90
45906;DHT22;31619;49.008;12.106;2023-01-25T12:55:00;3.60;99.90
45906;DHT22;31619;49.008;12.106;2023-01-25T13:00:35;3.40;99.90
45906;DHT22;31619;49.008;12.106;2023-01-25T13:11:36;3.40;99.90
45906;DHT22;31619;49.008;12.106;2023-01-25T13:16:46;3.40;99.90
45906;DHT22;31619;49.008;12.106;2023-01-25T13:21:55;3.40;99.90
45906;DHT22;31619;49.008;12.106;2023-01-25T13:24:30;3.30;99.90
45906;DHT22;31619;49.008;12.106;2023-01-25T13:26:57;3.30;99.90
45906;DHT22;31619;49.008;12.106;2023-01-25T13:32:02;3.30;99.90
45906;DHT22;31619;49.008;12.106;2023-01-25T13:37:01;3.20;99.90
45906;DHT22;31619;49.008;12.106;2023-01-25T13:42:00;3.10;99.90
45906;DHT22;31619;49.008;12.106;2023-01-25T13:44:28;3.20;99.90
45906;DHT22;31619;49.008;12.106;2023-01-25T13:46:56;3.20;99.90
45906;DHT22;31619;49.008;12.106;2023-01-25T13:49:40;3.00;99.90
45906;DHT22;31619;49.008;12.106;2023-01-25T13:52:10;2.90;99.90
45906;DHT22;31619;49.008;12.106;2023-01-25T13:54:45;2.90;99.90
45906;DHT22;31619;49.008;12.106;2023-01-25T13:57:19;2.90;99.90
45906;DHT22;31619;49.008;12.106;2023-01-25T13:59:46;2.90;99.90
45906;DHT22;31619;49.008;12.106;2023-01-25T14:02:17;3.00;99.90
45906;DHT22;31619;49.008;12.106;2023-01-25T14:04:49;3.00;99.90
45906;DHT22;31619;49.008;12.106;2023-01-25T14:07:17;2.90;99.90
45906;DHT22;31619;49.008;12.106;2023-01-25T14:09:46;2.90;99.90
45906;DHT22;31619;49.008;12.106;2023-01-25T14:12:30;2.90;99.90
45906;DHT22;31619;49.008;12.106;2023-01-25T14:15:30;2.80;99.90
45906;DHT22;31619;49.008;12.106;2023-01-25T14:18:18;2.80;99.90
45906;DHT22;31619;49.008;12.106;2023-01-25T14:20:49;2.70;99.90
45906;DHT22;31619;49.008;12.106;2023-01-25T14:23:34;2.80;99.90
45906;DHT22;31619;49.008;12.106;2023-01-25T14:25:59;2.70;99.90
45906;DHT22;31619;49.008;12.106;2023-01-25T14:28:26;2.70;99.90
45906;DHT22;31619;49.008;12.106;2023-01-25T14:30:55;2.60;99.90
45906;DHT22;31619;49.008;12.106;2023-01-25T14:33:28;2.60;99.90
45906;DHT22;31619;49.008;12.106;2023-01-25T14:36:01;2.60;99.90
45906;DHT22;31619;49.008;12.106;2023-01-25T14:38:35;2.50;99.90
45906;DHT22;31619;49.008;12.106;2023-01-25T14:41:19;2.40;99.90
45906;DHT22;31619;49.008;12.106;2023-01-25T14:43:48;2.30;99.90
45906;DHT22;31619;49.008;12.106;2023-01-25T14:46:25;2.00;99.90
45906;DHT22;31619;49.008;12.106;2023-01-25T14:49:04;1.90;99.90
45906;DHT22;31619;49.008;12.106;2023-01-25T14:51:30;1.90;99.90
45906;DHT22;31619;49.008;12.106;2023-01-25T14:54:14;1.90;99.90
45906;DHT22;31619;49.008;12.106;2023-01-25T15:02:04;2.10;99.90
45906;DHT22;31619;49.008;12.106;2023-01-25T15:04:35;2.10;99.90
45906;DHT22;31619;49.008;12.106;2023-01-25T15:07:01;2.20;99.90
45906;DHT22;31619;49.008;12.106;2023-01-25T15:09:31;2.20;99.90
45906;DHT22;31619;49.008;12.106;2023-01-25T15:12:01;2.20;99.90
45906;DHT22;31619;49.008;12.106;2023-01-25T15:14:29;2.10;99.90
45906;DHT22;31619;49.008;12.106;2023-01-25T15:16:55;2.10;99.90
45906;DHT22;31619;49.008;12.106;2023-01-25T15:19:38;2.10;99.90
45906;DHT22;31619;49.008;12.106;2023-01-25T15:22:06;2.10;99.90
45906;DHT22;31619;49.008;12.106;2023-01-25T15:24:32;1.90;99.90
45906;DHT22;31619;49.008;12.106;2023-01-25T15:26:58;1.80;99.90
45906;DHT22;31619;49.008;12.106;2023-01-25T15:29:24;1.70;99.90
45906;DHT22;31619;49.008;12.106;2023-01-25T15:31:52;1.70;99.90
45906;DHT22;31619;49.008;12.106;2023-01-25T15:34:26;1.70;99.90
45906;DHT22;31619;49.008;12.106;2023-01-25T15:36:54;1.80;99.90
45906;DHT22;31619;49.008;12.106;2023-01-25T15:39:20;1.80;99.90
45906;DHT22;31619;49.008;12.106;2023-01-25T15:41:46;1.70;99.90
45906;DHT22;31619;49.008;12.106;2023-01-25T15:44:12;1.70;99.90
45906;DHT22;31619;49.008;12.106;2023-01-25T15:46:42;1.70;99.90
45906;DHT22;31619;49.008;12.106;2023-01-25T15:49:16;1.60;99.90
45906;DHT22;31619;49.008;12.106;2023-01-25T15:51:43;1.70;99.90
45906;DHT22;31619;49.008;12.106;2023-01-25T15:54:08;1.70;99.90
45906;DHT22;31619;49.008;12.106;2023-01-25T15:56:35;1.70;99.90
45906;DHT22;31619;49.008;12.106;2023-01-25T15:59:06;1.70;99.90
45906;DHT22;31619;49.008;12.106;2023-01-25T16:01:31;1.80;99.90
45906;DHT22;31619;49.008;12.106;2023-01-25T16:03:58;1.80;99.90
45906;DHT22;31619;49.008;12.106;2023-01-25T16:06:46;1.80;99.90
45906;DHT22;31619;49.008;12.106;2023-01-25T16:09:14;1.70;99.90
45906;DHT22;31619;49.008;12.106;2023-01-25T16:11:41;1.60;99.90
45906;DHT22;31619;49.008;12.106;2023-01-25T16:14:06;1.60;99.90
45906;DHT22;31619;49.008;12.106;2023-01-25T16:16:34;1.60;99.90
45906;DHT22;31619;49.008;12.106;2023-01-25T16:19:01;1.70;99.90
45906;DHT22;31619;49.008;12.106;2023-01-25T16:21:27;1.60;99.90
45906;DHT22;31619;49.008;12.106;2023-01-25T16:23:52;1.70;99.90
45906;DHT22;31619;49.008;12.106;2023-01-25T16:26:25;1.50;99.90
45906;DHT22;31619;49.008;12.106;2023-01-25T16:28:51;1.40;99.90
45906;DHT22;31619;49.008;12.106;2023-01-25T16:31:17;1.40;99.90
45906;DHT22;31619;49.008;12.106;2023-01-25T16:33:43;1.40;99.90
45906;DHT22;31619;49.008;12.106;2023-01-25T16:36:21;1.40;99.90
45906;DHT22;31619;49.008;12.106;2023-01-25T16:38:48;1.30;99.90
45906;DHT22;31619;49.008;12.106;2023-01-25T16:41:14;1.40;99.90
45906;DHT22;31619;49.008;12.106;2023-01-25T16:43:44;1.40;99.90
45906;DHT22;31619;49.008;12.106;2023-01-25T16:48:40;1.40;99.90
45906;DHT22;31619;49.008;12.106;2023-01-25T16:51:07;1.50;99.90
45906;DHT22;31619;49.008;12.106;2023-01-25T16:53:34;1.60;99.90
45906;DHT22;31619;49.008;12.106;2023-01-25T16:55:59;1.60;99.90
45906;DHT22;31619;49.008;12.106;2023-01-25T16:58:25;1.60;99.90
45906;DHT22;31619;49.008;12.106;2023-01-25T17:00:51;1.60;99.90
45906;DHT22;31619;49.008;12.106;2023-01-25T17:03:16;1.40;99.90
45906;DHT22;31619;49.008;12.106;2023-01-25T17:05:42;1.50;99.90
45906;DHT22;31619;49.008;12.106;2023-01-25T17:08:07;1.40;99.90
45906;DHT22;31619;49.008;12.106;2023-01-25T17:10:34;1.20;99.90
45906;DHT22;31619;49.008;12.106;2023-01-25T17:13:03;1.10;99.90
45906;DHT22;31619;49.008;12.106;2023-01-25T17:15:30;1.00;99.90
45906;DHT22;31619;49.008;12.106;2023-01-25T17:17:57;1.10;99.90
45906;DHT22;31619;49.008;12.106;2023-01-25T17:20:23;1.10;99.90
45906;DHT22;31619;49.008;12.106;2023-01-25T17:22:49;1.10;99.90
45906;DHT22;31619;49.008;12.106;2023-01-25T17:25:16;1.30;99.90
45906;DHT22;31619;49.008;12.106;2023-01-25T17:27:41;1.30;99.90
45906;DHT22;31619;49.008;12.106;2023-01-25T17:30:07;1.40;99.90
45906;DHT22;31619;49.008;12.106;2023-01-25T17:32:33;1.40;99.90